Řízení letového provozu České republiky  
Aktualizace dat:  22.07.2019 14:44:27 UTC English version
   METEO Zobrazení stránky:  22.07.2019 14:44:44 UTC  
vysvětlivky
METAR EDDB 221420Z 29008KT 260V320 9999 SCT049 24/13 Q1022 NOSIG=
METAR EDDC 221420Z 30004KT 260V360 CAVOK 25/11 Q1022 NOSIG=
METAR EDDE 221420Z 27009KT 230V310 CAVOK 26/11 Q1023 NOSIG=
METAR EDDF 221420Z 19005KT 110V260 CAVOK 31/10 Q1022 NOSIG=
METAR EDDM 221420Z 28006KT CAVOK 29/12 Q1024 NOSIG=
METAR EDDN 221420Z 28008KT 230V330 CAVOK 29/08 Q1023 NOSIG=
METAR EDDP 221420Z 28012KT 250V320 CAVOK 27/11 Q1022 NOSIG=
METAR EDDT 221420Z 30005KT 250V340 9999 -RA SCT048 23/14 Q1022 NOSIG=
METAR EDQM 221420Z VRB05KT CAVOK 28/11 Q1024=
METAR EPBY 221430Z 29014KT 270V330 CAVOK 24/10 Q1021=
METAR EPGD 221430Z 27013KT 250V310 9999 SCT045 21/10 Q1020=
METAR EPKK 221430Z 27007KT 9999 FEW056 25/13 Q1021=
METAR EPKT 221430Z 31011KT 280V340 CAVOK 26/10 Q1021=
METAR EPLL 221430Z 28010G20KT 240V340 CAVOK 25/11 Q1021=
METAR EPPO 221430Z 29011KT CAVOK 25/10 Q1021=
METAR EPRZ 221430Z 30008KT 270V350 CAVOK 26/12 Q1020=
METAR EPWA 221430Z 30010KT 260V330 CAVOK 26/10 Q1020 NOSIG=
METAR EPWR 221430Z 31009KT CAVOK 26/12 Q1022=
METAR LHBP 221430Z 30014KT CAVOK 30/10 Q1020 NOSIG=
METAR LHSM 221415Z AUTO 32006KT 280V360 CAVOK 29/14 Q1021 NOSIG=
METAR LKBC 221430Z AUTO 26008KT 180V310 9999 FEW068 SCT081 BKN160 27/12 Q1023=
METAR LKCV 221400Z 33004KT 280V020 CAVOK 28/13 Q1022 NOSIG RMK BLU BLU=
METAR LKKB 221400Z 28006KT 9999 SCT043 BKN200 28/12 Q1022 NOSIG RMK BLU BLU=
METAR LKKU NIL
METAR LKKV 221430Z 32007KT 290V360 CAVOK 27/10 Q1024 RMK REG QNH 1020=
METAR LKLN 221430Z AUTO 22008KT 9999 BKN073 BKN140 27/12 Q1023=
METAR LKMT 221430Z 03007KT 340V070 CAVOK 27/12 Q1021 NOSIG RMK REG QNH 1020=
METAR LKNA 221400Z 29008KT 230V340 CAVOK 27/11 Q1023 NOSIG RMK BLU BLU=
METAR LKPD 221400Z 30006KT 260V360 CAVOK 28/10 Q1022 NOSIG RMK BLU BLU=
METAR LKPJ 221400Z AUTO 33006KT 310V010 9999 FEW074/// 28/14 Q1022=
METAR LKPR 221430Z 31009KT 270V350 CAVOK 28/09 Q1023 NOSIG RMK REG QNH 1020=
METAR LKTB 221430Z VRB06KT CAVOK 29/14 Q1021 NOSIG RMK REG QNH 1020=
METAR LKVO 221300Z 30005KT 230V360 CAVOK 28/12 Q1023=
METAR LOWI 221420Z 08008KT 030V120 9999 FEW070 OVC300 29/14 Q1023 NOSIG=
METAR LOWL 221420Z 30010KT 270V340 9999 FEW060 SCT170 BKN300 28/14 Q1023 NOSIG=
METAR LOWS 221420Z 33005KT 260V050 9999 FEW060 SCT180 BKN300 28/15 Q1024 NOSIG=
METAR LOWW 221420Z 36005KT 330V030 CAVOK 28/14 Q1022 NOSIG=
METAR LZIB 221430Z 31006KT 270V350 CAVOK 29/12 Q1021 NOSIG=
METAR LZKZ 221430Z 24009KT CAVOK 26/17 Q1021 NOSIG=
METAR LZMC 221400Z 32008KT CAVOK 29/10 Q1022=
METAR LZPP 221430Z 35008KT CAVOK 28/13 Q1022=
METAR LZSL 221430Z 34010KT 310V010 9999 FEW050 28/11 Q1021=
METAR LZTT 221430Z 21004KT 150V240 9999 SCT047 23/11 Q1023 NOSIG=
METAR LZZI 221430Z VRB03KT 9999 FEW053 27/12 Q1022=